sensor_id;sensor_type;location;lat;lon;timestamp;temperature;humidity
35920;DHT22;36160;53.370;-6.196;2022-11-11T00:00:31;16.10;99.90
35920;DHT22;36160;53.370;-6.196;2022-11-11T00:02:57;16.20;99.50
35920;DHT22;36160;53.370;-6.196;2022-11-11T00:05:24;16.20;98.20
35920;DHT22;36160;53.370;-6.196;2022-11-11T00:07:54;16.30;96.90
35920;DHT22;36160;53.370;-6.196;2022-11-11T00:10:28;16.20;97.30
35920;DHT22;36160;53.370;-6.196;2022-11-11T00:12:58;16.20;97.90
35920;DHT22;36160;53.370;-6.196;2022-11-11T00:15:24;16.20;97.20
35920;DHT22;36160;53.370;-6.196;2022-11-11T00:17:49;16.10;95.20
35920;DHT22;36160;53.370;-6.196;2022-11-11T00:20:35;16.20;95.20
35920;DHT22;36160;53.370;-6.196;2022-11-11T00:23:22;16.10;94.70
35920;DHT22;36160;53.370;-6.196;2022-11-11T00:26:08;16.10;94.00
35920;DHT22;36160;53.370;-6.196;2022-11-11T00:28:35;16.20;93.40
35920;DHT22;36160;53.370;-6.196;2022-11-11T00:31:05;16.10;94.10
35920;DHT22;36160;53.370;-6.196;2022-11-11T00:33:31;16.20;94.60
35920;DHT22;36160;53.370;-6.196;2022-11-11T00:35:57;16.20;94.90
35920;DHT22;36160;53.370;-6.196;2022-11-11T00:38:23;16.00;96.80
35920;DHT22;36160;53.370;-6.196;2022-11-11T00:41:09;16.10;97.10
35920;DHT22;36160;53.370;-6.196;2022-11-11T00:43:35;16.00;97.20
35920;DHT22;36160;53.370;-6.196;2022-11-11T00:46:01;16.00;97.40
35920;DHT22;36160;53.370;-6.196;2022-11-11T00:48:46;16.00;97.70
35920;DHT22;36160;53.370;-6.196;2022-11-11T00:51:30;15.90;98.60
35920;DHT22;36160;53.370;-6.196;2022-11-11T00:53:55;16.10;99.50
35920;DHT22;36160;53.370;-6.196;2022-11-11T00:56:22;15.90;99.90
35920;DHT22;36160;53.370;-6.196;2022-11-11T00:58:48;15.90;99.90
35920;DHT22;36160;53.370;-6.196;2022-11-11T01:01:13;15.80;99.90
35920;DHT22;36160;53.370;-6.196;2022-11-11T01:03:39;16.00;99.90
35920;DHT22;36160;53.370;-6.196;2022-11-11T01:06:05;15.90;99.90
35920;DHT22;36160;53.370;-6.196;2022-11-11T01:08:31;16.00;99.90
35920;DHT22;36160;53.370;-6.196;2022-11-11T01:10:57;16.00;99.90
35920;DHT22;36160;53.370;-6.196;2022-11-11T01:13:26;15.80;99.90
35920;DHT22;36160;53.370;-6.196;2022-11-11T01:15:57;15.90;99.90
35920;DHT22;36160;53.370;-6.196;2022-11-11T01:18:24;15.90;99.90
35920;DHT22;36160;53.370;-6.196;2022-11-11T01:21:05;15.90;99.90
35920;DHT22;36160;53.370;-6.196;2022-11-11T01:23:33;15.80;99.90
35920;DHT22;36160;53.370;-6.196;2022-11-11T01:26:02;15.90;99.90
35920;DHT22;36160;53.370;-6.196;2022-11-11T01:28:28;16.00;99.90
35920;DHT22;36160;53.370;-6.196;2022-11-11T01:30:58;15.90;99.90
35920;DHT22;36160;53.370;-6.196;2022-11-11T01:33:24;15.80;99.90
35920;DHT22;36160;53.370;-6.196;2022-11-11T01:35:50;15.80;99.90
35920;DHT22;36160;53.370;-6.196;2022-11-11T01:38:15;15.90;99.90
35920;DHT22;36160;53.370;-6.196;2022-11-11T01:40:46;15.90;99.80
35920;DHT22;36160;53.370;-6.196;2022-11-11T01:43:19;15.90;99.90
35920;DHT22;36160;53.370;-6.196;2022-11-11T01:45:54;15.90;99.90
35920;DHT22;36160;53.370;-6.196;2022-11-11T01:51:06;15.90;99.90
35920;DHT22;36160;53.370;-6.196;2022-11-11T01:53:36;15.80;99.90
35920;DHT22;36160;53.370;-6.196;2022-11-11T01:56:03;15.80;99.90
35920;DHT22;36160;53.370;-6.196;2022-11-11T01:58:29;15.80;99.20
35920;DHT22;36160;53.370;-6.196;2022-11-11T02:00:57;15.90;98.30
35920;DHT22;36160;53.370;-6.196;2022-11-11T02:03:24;15.90;96.00
35920;DHT22;36160;53.370;-6.196;2022-11-11T02:05:52;15.80;96.20
35920;DHT22;36160;53.370;-6.196;2022-11-11T02:08:24;15.90;96.30
35920;DHT22;36160;53.370;-6.196;2022-11-11T02:11:03;15.80;96.30
35920;DHT22;36160;53.370;-6.196;2022-11-11T02:13:30;15.90;96.50
35920;DHT22;36160;53.370;-6.196;2022-11-11T02:16:14;15.80;96.80
35920;DHT22;36160;53.370;-6.196;2022-11-11T02:18:41;15.90;94.80
35920;DHT22;36160;53.370;-6.196;2022-11-11T02:21:10;15.80;94.70
35920;DHT22;36160;53.370;-6.196;2022-11-11T02:26:07;16.00;93.70
35920;DHT22;36160;53.370;-6.196;2022-11-11T02:28:33;16.00;93.00
35920;DHT22;36160;53.370;-6.196;2022-11-11T02:30:59;16.00;92.70
35920;DHT22;36160;53.370;-6.196;2022-11-11T02:33:24;15.90;93.30
35920;DHT22;36160;53.370;-6.196;2022-11-11T02:35:52;16.10;93.40
35920;DHT22;36160;53.370;-6.196;2022-11-11T02:38:23;16.00;94.80
35920;DHT22;36160;53.370;-6.196;2022-11-11T02:40:50;16.00;95.70
35920;DHT22;36160;53.370;-6.196;2022-11-11T02:43:35;16.00;96.20
35920;DHT22;36160;53.370;-6.196;2022-11-11T02:46:02;16.10;96.70
35920;DHT22;36160;53.370;-6.196;2022-11-11T02:48:29;16.00;97.60
35920;DHT22;36160;53.370;-6.196;2022-11-11T02:50:55;16.00;97.00
35920;DHT22;36160;53.370;-6.196;2022-11-11T02:53:21;15.90;96.40
35920;DHT22;36160;53.370;-6.196;2022-11-11T02:55:46;16.10;96.00
35920;DHT22;36160;53.370;-6.196;2022-11-11T02:58:13;16.10;95.40
35920;DHT22;36160;53.370;-6.196;2022-11-11T03:00:39;16.00;95.40
35920;DHT22;36160;53.370;-6.196;2022-11-11T03:03:04;16.00;95.50
35920;DHT22;36160;53.370;-6.196;2022-11-11T03:05:30;16.10;95.50
35920;DHT22;36160;53.370;-6.196;2022-11-11T03:07:56;16.10;95.50
35920;DHT22;36160;53.370;-6.196;2022-11-11T03:10:21;16.10;95.40
35920;DHT22;36160;53.370;-6.196;2022-11-11T03:12:47;16.10;95.90
35920;DHT22;36160;53.370;-6.196;2022-11-11T03:15:13;15.90;97.20
35920;DHT22;36160;53.370;-6.196;2022-11-11T03:17:38;16.00;96.60
35920;DHT22;36160;53.370;-6.196;2022-11-11T03:20:12;15.90;96.60
35920;DHT22;36160;53.370;-6.196;2022-11-11T03:23:04;16.00;95.90
35920;DHT22;36160;53.370;-6.196;2022-11-11T03:25:31;15.80;96.00
35920;DHT22;36160;53.370;-6.196;2022-11-11T03:28:14;15.80;95.70
35920;DHT22;36160;53.370;-6.196;2022-11-11T03:30:42;15.90;95.80
35920;DHT22;36160;53.370;-6.196;2022-11-11T03:33:08;15.80;95.30
35920;DHT22;36160;53.370;-6.196;2022-11-11T03:35:34;15.80;95.60
35920;DHT22;36160;53.370;-6.196;2022-11-11T03:38:01;15.90;94.50
35920;DHT22;36160;53.370;-6.196;2022-11-11T03:40:46;15.90;93.10
35920;DHT22;36160;53.370;-6.196;2022-11-11T03:43:15;15.80;87.80
35920;DHT22;36160;53.370;-6.196;2022-11-11T03:45:42;15.90;87.60
35920;DHT22;36160;53.370;-6.196;2022-11-11T03:48:08;15.90;88.20
35920;DHT22;36160;53.370;-6.196;2022-11-11T03:50:34;15.80;90.00
35920;DHT22;36160;53.370;-6.196;2022-11-11T03:52:59;15.80;87.80
35920;DHT22;36160;53.370;-6.196;2022-11-11T03:55:26;15.80;89.40
35920;DHT22;36160;53.370;-6.196;2022-11-11T03:57:51;15.80;86.20
35920;DHT22;36160;53.370;-6.196;2022-11-11T04:00:23;15.90;84.50
35920;DHT22;36160;53.370;-6.196;2022-11-11T04:02:49;15.70;83.20
35920;DHT22;36160;53.370;-6.196;2022-11-11T04:05:34;15.80;83.50
35920;DHT22;36160;53.370;-6.196;2022-11-11T04:08:19;15.90;74.10
35920;DHT22;36160;53.370;-6.196;2022-11-11T04:11:14;15.90;73.60
35920;DHT22;36160;53.370;-6.196;2022-11-11T04:13:45;15.80;72.10
35920;DHT22;36160;53.370;-6.196;2022-11-11T04:16:31;15.90;67.70
35920;DHT22;36160;53.370;-6.196;2022-11-11T04:18:57;15.90;58.90
35920;DHT22;36160;53.370;-6.196;2022-11-11T04:21:41;15.90;55.60
35920;DHT22;36160;53.370;-6.196;2022-11-11T04:24:17;15.90;54.20
35920;DHT22;36160;53.370;-6.196;2022-11-11T04:27:04;15.90;45.00
35920;DHT22;36160;53.370;-6.196;2022-11-11T04:29:30;16.00;45.20
35920;DHT22;36160;53.370;-6.196;2022-11-11T04:32:08;16.10;44.20
35920;DHT22;36160;53.370;-6.196;2022-11-11T04:34:54;16.10;40.10
35920;DHT22;36160;53.370;-6.196;2022-11-11T04:37:21;16.20;38.10
35920;DHT22;36160;53.370;-6.196;2022-11-11T04:39:48;16.20;39.10
35920;DHT22;36160;53.370;-6.196;2022-11-11T04:42:33;16.10;41.70
35920;DHT22;36160;53.370;-6.196;2022-11-11T04:44:59;16.10;43.90
35920;DHT22;36160;53.370;-6.196;2022-11-11T04:50:33;16.10;51.60
35920;DHT22;36160;53.370;-6.196;2022-11-11T04:52:59;16.10;53.40
35920;DHT22;36160;53.370;-6.196;2022-11-11T04:55:25;16.00;56.00
35920;DHT22;36160;53.370;-6.196;2022-11-11T04:58:10;16.10;56.80
35920;DHT22;36160;53.370;-6.196;2022-11-11T05:00:37;16.10;49.10
35920;DHT22;36160;53.370;-6.196;2022-11-11T05:03:03;16.10;47.20
35920;DHT22;36160;53.370;-6.196;2022-11-11T05:05:46;16.10;48.10
35920;DHT22;36160;53.370;-6.196;2022-11-11T05:08:31;16.10;44.90
35920;DHT22;36160;53.370;-6.196;2022-11-11T05:11:16;16.10;44.80
35920;DHT22;36160;53.370;-6.196;2022-11-11T05:13:42;16.20;45.80
35920;DHT22;36160;53.370;-6.196;2022-11-11T05:16:28;16.10;39.80
35920;DHT22;36160;53.370;-6.196;2022-11-11T05:19:13;16.20;34.50
35920;DHT22;36160;53.370;-6.196;2022-11-11T05:22:12;16.20;30.50
35920;DHT22;36160;53.370;-6.196;2022-11-11T05:24:38;16.20;31.30
35920;DHT22;36160;53.370;-6.196;2022-11-11T05:27:23;16.30;34.50
35920;DHT22;36160;53.370;-6.196;2022-11-11T05:29:48;16.30;33.30
35920;DHT22;36160;53.370;-6.196;2022-11-11T05:32:19;16.20;33.20
35920;DHT22;36160;53.370;-6.196;2022-11-11T05:34:45;16.30;29.20
35920;DHT22;36160;53.370;-6.196;2022-11-11T05:37:11;16.20;30.00
35920;DHT22;36160;53.370;-6.196;2022-11-11T05:39:37;16.20;31.10
35920;DHT22;36160;53.370;-6.196;2022-11-11T05:42:03;16.30;30.60
35920;DHT22;36160;53.370;-6.196;2022-11-11T05:44:29;16.20;31.90
35920;DHT22;36160;53.370;-6.196;2022-11-11T05:46:55;16.20;32.70
35920;DHT22;36160;53.370;-6.196;2022-11-11T05:49:22;16.30;33.00
35920;DHT22;36160;53.370;-6.196;2022-11-11T05:51:48;16.30;33.40
35920;DHT22;36160;53.370;-6.196;2022-11-11T05:54:14;16.30;34.10
35920;DHT22;36160;53.370;-6.196;2022-11-11T05:56:40;16.30;36.80
35920;DHT22;36160;53.370;-6.196;2022-11-11T05:59:06;16.30;35.80
35920;DHT22;36160;53.370;-6.196;2022-11-11T06:01:32;16.30;38.90
35920;DHT22;36160;53.370;-6.196;2022-11-11T06:03:58;16.30;34.70
35920;DHT22;36160;53.370;-6.196;2022-11-11T06:06:24;16.30;36.60
35920;DHT22;36160;53.370;-6.196;2022-11-11T06:08:50;16.30;35.10
35920;DHT22;36160;53.370;-6.196;2022-11-11T06:11:16;16.30;36.10
35920;DHT22;36160;53.370;-6.196;2022-11-11T06:13:42;16.30;32.90
35920;DHT22;36160;53.370;-6.196;2022-11-11T06:16:08;16.30;33.80
35920;DHT22;36160;53.370;-6.196;2022-11-11T06:18:33;16.30;31.50
35920;DHT22;36160;53.370;-6.196;2022-11-11T06:20:59;16.30;32.80
35920;DHT22;36160;53.370;-6.196;2022-11-11T06:23:26;16.30;32.30
35920;DHT22;36160;53.370;-6.196;2022-11-11T06:25:53;16.40;34.60
35920;DHT22;36160;53.370;-6.196;2022-11-11T06:28:50;16.30;35.20
35920;DHT22;36160;53.370;-6.196;2022-11-11T06:31:21;16.30;32.50
35920;DHT22;36160;53.370;-6.196;2022-11-11T06:33:46;16.30;31.20
35920;DHT22;36160;53.370;-6.196;2022-11-11T06:36:14;16.30;29.30
35920;DHT22;36160;53.370;-6.196;2022-11-11T06:38:40;16.30;28.20
35920;DHT22;36160;53.370;-6.196;2022-11-11T06:41:07;16.30;25.60
35920;DHT22;36160;53.370;-6.196;2022-11-11T06:43:33;16.30;24.00
35920;DHT22;36160;53.370;-6.196;2022-11-11T06:45:59;16.30;21.30
35920;DHT22;36160;53.370;-6.196;2022-11-11T06:48:27;16.40;22.00
35920;DHT22;36160;53.370;-6.196;2022-11-11T06:50:54;16.40;23.40
35920;DHT22;36160;53.370;-6.196;2022-11-11T06:53:21;16.30;20.30
35920;DHT22;36160;53.370;-6.196;2022-11-11T06:55:47;16.40;19.90
35920;DHT22;36160;53.370;-6.196;2022-11-11T06:58:17;16.40;20.30
35920;DHT22;36160;53.370;-6.196;2022-11-11T07:00:45;16.30;18.80
35920;DHT22;36160;53.370;-6.196;2022-11-11T07:03:14;16.30;19.50
35920;DHT22;36160;53.370;-6.196;2022-11-11T07:05:40;16.30;20.90
35920;DHT22;36160;53.370;-6.196;2022-11-11T07:08:09;16.40;19.50
35920;DHT22;36160;53.370;-6.196;2022-11-11T07:10:36;16.40;18.60
35920;DHT22;36160;53.370;-6.196;2022-11-11T07:13:03;16.40;16.20
35920;DHT22;36160;53.370;-6.196;2022-11-11T07:15:29;16.40;14.40
35920;DHT22;36160;53.370;-6.196;2022-11-11T07:17:55;16.40;16.10
35920;DHT22;36160;53.370;-6.196;2022-11-11T07:20:20;16.40;16.40
35920;DHT22;36160;53.370;-6.196;2022-11-11T07:22:47;16.40;14.50
35920;DHT22;36160;53.370;-6.196;2022-11-11T07:25:12;16.40;12.00
35920;DHT22;36160;53.370;-6.196;2022-11-11T07:27:41;16.40;13.10
35920;DHT22;36160;53.370;-6.196;2022-11-11T07:30:07;16.50;10.90
35920;DHT22;36160;53.370;-6.196;2022-11-11T07:32:33;16.50;9.60
35920;DHT22;36160;53.370;-6.196;2022-11-11T07:34:59;16.40;9.30
35920;DHT22;36160;53.370;-6.196;2022-11-11T07:37:25;16.50;11.10
35920;DHT22;36160;53.370;-6.196;2022-11-11T07:39:51;16.50;9.30
35920;DHT22;36160;53.370;-6.196;2022-11-11T07:42:17;16.40;10.00
35920;DHT22;36160;53.370;-6.196;2022-11-11T07:44:42;16.50;10.50
35920;DHT22;36160;53.370;-6.196;2022-11-11T07:47:09;16.60;8.40
35920;DHT22;36160;53.370;-6.196;2022-11-11T07:49:35;16.50;9.30
35920;DHT22;36160;53.370;-6.196;2022-11-11T07:52:00;16.50;8.30
35920;DHT22;36160;53.370;-6.196;2022-11-11T07:54:26;16.50;9.30
35920;DHT22;36160;53.370;-6.196;2022-11-11T07:56:52;16.50;8.30
35920;DHT22;36160;53.370;-6.196;2022-11-11T07:59:18;16.60;8.90
35920;DHT22;36160;53.370;-6.196;2022-11-11T08:01:44;16.50;9.00
35920;DHT22;36160;53.370;-6.196;2022-11-11T08:04:09;16.50;11.60
35920;DHT22;36160;53.370;-6.196;2022-11-11T08:06:35;16.50;12.90
35920;DHT22;36160;53.370;-6.196;2022-11-11T08:09:01;16.50;17.90
35920;DHT22;36160;53.370;-6.196;2022-11-11T08:11:26;16.60;25.00
35920;DHT22;36160;53.370;-6.196;2022-11-11T08:14:18;16.50;27.40
35920;DHT22;36160;53.370;-6.196;2022-11-11T08:16:44;16.50;26.90
35920;DHT22;36160;53.370;-6.196;2022-11-11T08:19:10;16.50;27.90
35920;DHT22;36160;53.370;-6.196;2022-11-11T08:21:35;16.50;30.00
35920;DHT22;36160;53.370;-6.196;2022-11-11T08:24:01;16.50;37.60
35920;DHT22;36160;53.370;-6.196;2022-11-11T08:26:27;16.50;43.20
35920;DHT22;36160;53.370;-6.196;2022-11-11T08:28:52;16.40;45.90
35920;DHT22;36160;53.370;-6.196;2022-11-11T08:31:18;16.40;47.10
35920;DHT22;36160;53.370;-6.196;2022-11-11T08:33:44;16.40;52.00
35920;DHT22;36160;53.370;-6.196;2022-11-11T08:36:10;16.40;50.90
35920;DHT22;36160;53.370;-6.196;2022-11-11T08:38:37;16.40;50.10
35920;DHT22;36160;53.370;-6.196;2022-11-11T08:41:05;16.40;48.90
35920;DHT22;36160;53.370;-6.196;2022-11-11T08:43:32;16.40;48.10
35920;DHT22;36160;53.370;-6.196;2022-11-11T08:45:59;16.40;47.60
35920;DHT22;36160;53.370;-6.196;2022-11-11T08:48:25;16.40;46.70
35920;DHT22;36160;53.370;-6.196;2022-11-11T08:50:52;16.50;46.40
35920;DHT22;36160;53.370;-6.196;2022-11-11T08:53:19;16.50;45.20
35920;DHT22;36160;53.370;-6.196;2022-11-11T08:55:45;16.50;41.20
35920;DHT22;36160;53.370;-6.196;2022-11-11T08:58:12;16.50;41.40
35920;DHT22;36160;53.370;-6.196;2022-11-11T09:00:38;16.50;38.70
35920;DHT22;36160;53.370;-6.196;2022-11-11T09:03:06;16.60;38.60
35920;DHT22;36160;53.370;-6.196;2022-11-11T09:05:33;16.60;32.70
35920;DHT22;36160;53.370;-6.196;2022-11-11T09:08:04;16.60;29.70
35920;DHT22;36160;53.370;-6.196;2022-11-11T09:10:34;16.70;27.40
35920;DHT22;36160;53.370;-6.196;2022-11-11T09:13:00;16.80;26.80
35920;DHT22;36160;53.370;-6.196;2022-11-11T09:15:27;16.80;23.00
35920;DHT22;36160;53.370;-6.196;2022-11-11T09:17:53;16.80;25.80
35920;DHT22;36160;53.370;-6.196;2022-11-11T09:20:19;16.80;26.00
35920;DHT22;36160;53.370;-6.196;2022-11-11T09:22:47;16.80;28.80
35920;DHT22;36160;53.370;-6.196;2022-11-11T09:25:13;16.80;29.00
35920;DHT22;36160;53.370;-6.196;2022-11-11T09:27:39;16.80;30.00
35920;DHT22;36160;53.370;-6.196;2022-11-11T09:30:06;16.90;29.80
35920;DHT22;36160;53.370;-6.196;2022-11-11T09:32:32;16.90;24.90
35920;DHT22;36160;53.370;-6.196;2022-11-11T09:34:58;16.90;26.20
35920;DHT22;36160;53.370;-6.196;2022-11-11T09:37:24;16.90;25.30
35920;DHT22;36160;53.370;-6.196;2022-11-11T09:39:50;16.80;26.10
35920;DHT22;36160;53.370;-6.196;2022-11-11T09:42:47;16.90;28.90
35920;DHT22;36160;53.370;-6.196;2022-11-11T09:45:38;16.90;29.30
35920;DHT22;36160;53.370;-6.196;2022-11-11T09:48:51;16.90;29.70
35920;DHT22;36160;53.370;-6.196;2022-11-11T09:51:26;17.00;26.40
35920;DHT22;36160;53.370;-6.196;2022-11-11T09:53:58;17.00;25.30
35920;DHT22;36160;53.370;-6.196;2022-11-11T09:56:25;17.00;24.10
35920;DHT22;36160;53.370;-6.196;2022-11-11T09:59:06;17.00;20.90
35920;DHT22;36160;53.370;-6.196;2022-11-11T10:01:47;17.10;20.40
35920;DHT22;36160;53.370;-6.196;2022-11-11T10:04:24;17.10;19.10
35920;DHT22;36160;53.370;-6.196;2022-11-11T10:07:03;17.10;15.50
35920;DHT22;36160;53.370;-6.196;2022-11-11T10:09:36;17.10;16.10
35920;DHT22;36160;53.370;-6.196;2022-11-11T10:12:13;17.20;17.40
35920;DHT22;36160;53.370;-6.196;2022-11-11T10:14:45;17.20;17.40
35920;DHT22;36160;53.370;-6.196;2022-11-11T10:19:49;17.10;20.20
35920;DHT22;36160;53.370;-6.196;2022-11-11T10:22:25;17.10;20.90
35920;DHT22;36160;53.370;-6.196;2022-11-11T10:25:23;17.10;23.40
35920;DHT22;36160;53.370;-6.196;2022-11-11T10:27:53;17.10;24.60
35920;DHT22;36160;53.370;-6.196;2022-11-11T10:30:28;17.10;27.10
35920;DHT22;36160;53.370;-6.196;2022-11-11T10:33:13;17.10;28.70
35920;DHT22;36160;53.370;-6.196;2022-11-11T10:35:41;17.10;30.60
35920;DHT22;36160;53.370;-6.196;2022-11-11T10:40:48;17.10;34.80
35920;DHT22;36160;53.370;-6.196;2022-11-11T10:43:21;17.10;36.90
35920;DHT22;36160;53.370;-6.196;2022-11-11T10:46:08;17.10;35.70
35920;DHT22;36160;53.370;-6.196;2022-11-11T10:51:30;17.20;32.60
35920;DHT22;36160;53.370;-6.196;2022-11-11T10:54:08;17.20;33.30
35920;DHT22;36160;53.370;-6.196;2022-11-11T10:59:22;17.20;29.90
35920;DHT22;36160;53.370;-6.196;2022-11-11T11:01:55;17.30;31.20
35920;DHT22;36160;53.370;-6.196;2022-11-11T11:07:40;17.30;29.80
35920;DHT22;36160;53.370;-6.196;2022-11-11T11:10:17;17.30;30.60
35920;DHT22;36160;53.370;-6.196;2022-11-11T11:12:51;17.30;32.60
35920;DHT22;36160;53.370;-6.196;2022-11-11T11:15:21;17.40;33.50
35920;DHT22;36160;53.370;-6.196;2022-11-11T11:18:19;17.30;35.30
35920;DHT22;36160;53.370;-6.196;2022-11-11T11:21:06;17.40;35.30
35920;DHT22;36160;53.370;-6.196;2022-11-11T11:26:04;17.50;32.60
35920;DHT22;36160;53.370;-6.196;2022-11-11T11:28:31;17.50;32.80
35920;DHT22;36160;53.370;-6.196;2022-11-11T11:31:04;17.60;33.50
35920;DHT22;36160;53.370;-6.196;2022-11-11T11:33:53;17.60;30.90
35920;DHT22;36160;53.370;-6.196;2022-11-11T11:36:19;17.60;28.50
35920;DHT22;36160;53.370;-6.196;2022-11-11T11:38:47;17.60;27.30
35920;DHT22;36160;53.370;-6.196;2022-11-11T11:44:01;17.80;27.80
35920;DHT22;36160;53.370;-6.196;2022-11-11T11:46:36;17.60;28.00
35920;DHT22;36160;53.370;-6.196;2022-11-11T11:51:55;17.60;31.50
35920;DHT22;36160;53.370;-6.196;2022-11-11T11:54:37;17.70;34.00
35920;DHT22;36160;53.370;-6.196;2022-11-11T12:00:17;17.70;33.20
35920;DHT22;36160;53.370;-6.196;2022-11-11T12:05:47;17.90;32.70
35920;DHT22;36160;53.370;-6.196;2022-11-11T12:11:12;18.00;31.20
35920;DHT22;36160;53.370;-6.196;2022-11-11T12:16:51;18.20;29.00
35920;DHT22;36160;53.370;-6.196;2022-11-11T12:20:01;18.20;25.70
35920;DHT22;36160;53.370;-6.196;2022-11-11T12:30:23;18.00;35.10
35920;DHT22;36160;53.370;-6.196;2022-11-11T12:41:13;18.30;28.10
35920;DHT22;36160;53.370;-6.196;2022-11-11T12:46:22;18.10;28.90
35920;DHT22;36160;53.370;-6.196;2022-11-11T12:51:41;18.00;36.00
35920;DHT22;36160;53.370;-6.196;2022-11-11T12:54:33;17.90;37.60
35920;DHT22;36160;53.370;-6.196;2022-11-11T13:05:32;18.10;35.00
35920;DHT22;36160;53.370;-6.196;2022-11-11T13:11:15;18.20;29.20
35920;DHT22;36160;53.370;-6.196;2022-11-11T13:16:29;18.10;32.40
35920;DHT22;36160;53.370;-6.196;2022-11-11T13:19:14;18.20;31.20
35920;DHT22;36160;53.370;-6.196;2022-11-11T13:21:52;18.10;35.20
35920;DHT22;36160;53.370;-6.196;2022-11-11T13:24:22;18.10;34.90
35920;DHT22;36160;53.370;-6.196;2022-11-11T13:26:53;18.00;36.30
35920;DHT22;36160;53.370;-6.196;2022-11-11T13:32:23;17.90;43.20
35920;DHT22;36160;53.370;-6.196;2022-11-11T13:34:51;18.00;44.50
35920;DHT22;36160;53.370;-6.196;2022-11-11T13:37:26;17.90;45.60
35920;DHT22;36160;53.370;-6.196;2022-11-11T13:39:59;17.80;48.10
35920;DHT22;36160;53.370;-6.196;2022-11-11T13:42:38;17.70;50.20
35920;DHT22;36160;53.370;-6.196;2022-11-11T13:45:07;17.70;52.20
35920;DHT22;36160;53.370;-6.196;2022-11-11T13:47:36;17.70;53.20
35920;DHT22;36160;53.370;-6.196;2022-11-11T13:50:08;17.60;53.40
35920;DHT22;36160;53.370;-6.196;2022-11-11T13:55:47;17.60;52.60
35920;DHT22;36160;53.370;-6.196;2022-11-11T13:58:34;17.70;53.90
35920;DHT22;36160;53.370;-6.196;2022-11-11T14:01:03;17.70;55.30
35920;DHT22;36160;53.370;-6.196;2022-11-11T14:03:37;17.80;54.20
35920;DHT22;36160;53.370;-6.196;2022-11-11T14:08:53;17.80;53.90
35920;DHT22;36160;53.370;-6.196;2022-11-11T14:13:55;17.60;60.00
35920;DHT22;36160;53.370;-6.196;2022-11-11T14:21:52;17.70;62.80
35920;DHT22;36160;53.370;-6.196;2022-11-11T14:24:38;17.70;64.70
35920;DHT22;36160;53.370;-6.196;2022-11-11T14:29:37;17.60;69.00
35920;DHT22;36160;53.370;-6.196;2022-11-11T14:35:22;17.50;71.90
35920;DHT22;36160;53.370;-6.196;2022-11-11T14:40:27;17.50;78.30
35920;DHT22;36160;53.370;-6.196;2022-11-11T14:42:54;17.50;79.90
35920;DHT22;36160;53.370;-6.196;2022-11-11T14:47:55;17.40;82.70
35920;DHT22;36160;53.370;-6.196;2022-11-11T14:53:00;17.40;86.50
35920;DHT22;36160;53.370;-6.196;2022-11-11T14:55:35;17.40;87.60
35920;DHT22;36160;53.370;-6.196;2022-11-11T14:58:14;17.40;89.70
35920;DHT22;36160;53.370;-6.196;2022-11-11T15:00:52;17.30;90.90
35920;DHT22;36160;53.370;-6.196;2022-11-11T15:03:39;17.30;91.00
35920;DHT22;36160;53.370;-6.196;2022-11-11T15:06:16;17.30;92.70
35920;DHT22;36160;53.370;-6.196;2022-11-11T15:09:00;17.30;92.40
35920;DHT22;36160;53.370;-6.196;2022-11-11T15:25:48;17.40;92.80
35920;DHT22;36160;53.370;-6.196;2022-11-11T15:33:55;17.30;92.60
35920;DHT22;36160;53.370;-6.196;2022-11-11T15:39:11;17.20;94.30
35920;DHT22;36160;53.370;-6.196;2022-11-11T15:41:40;17.20;94.00
35920;DHT22;36160;53.370;-6.196;2022-11-11T15:44:20;17.10;95.00
35920;DHT22;36160;53.370;-6.196;2022-11-11T15:46:47;17.20;95.70
35920;DHT22;36160;53.370;-6.196;2022-11-11T15:49:36;17.10;96.50
35920;DHT22;36160;53.370;-6.196;2022-11-11T15:52:04;17.10;97.40
35920;DHT22;36160;53.370;-6.196;2022-11-11T15:54:32;17.10;96.60
35920;DHT22;36160;53.370;-6.196;2022-11-11T15:57:12;17.10;97.10
35920;DHT22;36160;53.370;-6.196;2022-11-11T15:59:38;17.00;96.90
35920;DHT22;36160;53.370;-6.196;2022-11-11T16:02:26;17.00;98.00
35920;DHT22;36160;53.370;-6.196;2022-11-11T16:05:14;17.00;98.40
35920;DHT22;36160;53.370;-6.196;2022-11-11T16:07:42;17.00;98.50
35920;DHT22;36160;53.370;-6.196;2022-11-11T16:10:14;16.90;99.00
35920;DHT22;36160;53.370;-6.196;2022-11-11T16:12:56;16.90;99.20
35920;DHT22;36160;53.370;-6.196;2022-11-11T16:17:50;16.90;99.90
35920;DHT22;36160;53.370;-6.196;2022-11-11T16:20:24;17.00;99.90
35920;DHT22;36160;53.370;-6.196;2022-11-11T16:22:55;16.90;99.90
35920;DHT22;36160;53.370;-6.196;2022-11-11T16:25:23;16.90;99.90
35920;DHT22;36160;53.370;-6.196;2022-11-11T16:27:50;16.90;99.90
35920;DHT22;36160;53.370;-6.196;2022-11-11T16:30:26;17.00;99.90
35920;DHT22;36160;53.370;-6.196;2022-11-11T16:32:54;16.90;99.90
35920;DHT22;36160;53.370;-6.196;2022-11-11T16:35:38;16.90;99.90
35920;DHT22;36160;53.370;-6.196;2022-11-11T16:38:05;16.80;99.90
35920;DHT22;36160;53.370;-6.196;2022-11-11T16:43:15;16.90;99.90
35920;DHT22;36160;53.370;-6.196;2022-11-11T16:45:47;16.80;99.90
35920;DHT22;36160;53.370;-6.196;2022-11-11T16:51:01;16.90;99.90
35920;DHT22;36160;53.370;-6.196;2022-11-11T16:53:30;16.80;99.90
35920;DHT22;36160;53.370;-6.196;2022-11-11T16:56:00;16.80;99.90
35920;DHT22;36160;53.370;-6.196;2022-11-11T16:58:27;16.80;99.90
35920;DHT22;36160;53.370;-6.196;2022-11-11T17:01:00;16.80;99.90
35920;DHT22;36160;53.370;-6.196;2022-11-11T17:03:26;16.80;99.90
35920;DHT22;36160;53.370;-6.196;2022-11-11T17:05:55;16.80;99.90
35920;DHT22;36160;53.370;-6.196;2022-11-11T17:10:57;16.70;99.90
35920;DHT22;36160;53.370;-6.196;2022-11-11T17:13:23;16.70;99.90
35920;DHT22;36160;53.370;-6.196;2022-11-11T17:15:53;16.80;99.90
35920;DHT22;36160;53.370;-6.196;2022-11-11T17:18:19;16.80;99.90
35920;DHT22;36160;53.370;-6.196;2022-11-11T17:20:45;16.70;99.90
35920;DHT22;36160;53.370;-6.196;2022-11-11T17:23:11;16.60;99.90
35920;DHT22;36160;53.370;-6.196;2022-11-11T17:25:36;16.70;99.90
35920;DHT22;36160;53.370;-6.196;2022-11-11T17:28:02;16.60;99.90
35920;DHT22;36160;53.370;-6.196;2022-11-11T17:30:28;16.70;99.90
35920;DHT22;36160;53.370;-6.196;2022-11-11T17:32:53;16.70;99.90
35920;DHT22;36160;53.370;-6.196;2022-11-11T17:35:19;16.60;99.90
35920;DHT22;36160;53.370;-6.196;2022-11-11T17:37:45;16.70;99.90
35920;DHT22;36160;53.370;-6.196;2022-11-11T17:40:11;16.70;99.90
35920;DHT22;36160;53.370;-6.196;2022-11-11T17:42:37;16.70;99.90
35920;DHT22;36160;53.370;-6.196;2022-11-11T17:45:04;16.60;99.90
35920;DHT22;36160;53.370;-6.196;2022-11-11T17:47:30;16.70;99.90
35920;DHT22;36160;53.370;-6.196;2022-11-11T17:49:57;16.60;99.90
35920;DHT22;36160;53.370;-6.196;2022-11-11T17:52:23;16.60;99.90
35920;DHT22;36160;53.370;-6.196;2022-11-11T17:54:49;16.50;99.90
35920;DHT22;36160;53.370;-6.196;2022-11-11T17:57:15;16.50;99.90
35920;DHT22;36160;53.370;-6.196;2022-11-11T17:59:41;16.50;99.90
35920;DHT22;36160;53.370;-6.196;2022-11-11T18:02:12;16.40;99.90